Time;durP1;ratioP1;P1;durP2;ratioP2;P2;SDS_P1;SDS_P2;PMS_P1;PMS_P2;Temp;Humidity;BMP_temperature;BMP_pressure;BME280_temperature;BME280_humidity;BME280_pressure;Samples;Min_cycle;Max_cycle;Signal;HPM_P1;HPM_P2
2020/12/06 00:02:20;;;;;;;4.32;2.33;;;4.10;99.90;;;;;;4973145;28;20194;-73
2020/12/06 00:04:45;;;;;;;0.55;0.55;;;4.10;99.90;;;;;;4974256;28;20174;-73
2020/12/06 00:07:11;;;;;;;1.20;1.05;;;4.00;99.90;;;;;;4974134;28;20162;-73
2020/12/06 00:09:36;;;;;;;1.42;1.33;;;4.10;99.90;;;;;;4974261;28;20252;-73
2020/12/06 00:12:03;;;;;;;1.27;1.27;;;3.90;99.90;;;;;;4974072;28;20213;-74
2020/12/06 00:14:28;;;;;;;6.43;2.97;;;3.70;99.90;;;;;;4973996;28;20264;-73
2020/12/06 00:16:54;;;;;;;3.30;2.03;;;3.50;99.90;;;;;;4974170;28;20169;-73
2020/12/06 00:19:19;;;;;;;1.15;1.15;;;3.50;99.90;;;;;;4974110;28;20158;-74
2020/12/06 00:21:45;;;;;;;1.95;1.85;;;3.50;99.90;;;;;;4973888;28;20229;-74
2020/12/06 00:24:12;;;;;;;0.45;0.45;;;3.50;99.90;;;;;;4974135;28;20233;-73
2020/12/06 00:26:37;;;;;;;0.40;0.40;;;3.50;99.90;;;;;;4976142;28;20216;-73
2020/12/06 00:29:03;;;;;;;0.90;0.90;;;3.50;99.90;;;;;;4977927;28;20170;-74
2020/12/06 00:31:29;;;;;;;7.57;2.28;;;3.60;99.90;;;;;;4977629;28;20744;-73
2020/12/06 00:33:54;;;;;;;2.03;1.92;;;3.50;99.90;;;;;;4977801;28;20210;-73
2020/12/06 00:36:20;;;;;;;2.05;1.95;;;3.60;99.90;;;;;;4977756;28;20169;-73
2020/12/06 00:38:46;;;;;;;0.35;0.35;;;3.70;99.90;;;;;;4977784;28;20626;-73
2020/12/06 00:41:13;;;;;;;0.43;0.38;;;3.40;99.90;;;;;;4976418;28;20269;-73
2020/12/06 00:43:39;;;;;;;1.63;1.55;;;3.40;99.90;;;;;;4977763;28;20593;-73
2020/12/06 00:46:05;;;;;;;1.38;0.88;;;3.20;99.90;;;;;;4977747;28;20162;-73
2020/12/06 00:48:31;;;;;;;7.07;1.95;;;3.40;99.90;;;;;;4977591;28;20173;-73
2020/12/06 00:50:57;;;;;;;0.70;0.70;;;3.40;99.90;;;;;;4977592;28;20205;-73
2020/12/06 00:53:22;;;;;;;0.50;0.50;;;3.50;99.90;;;;;;4977463;28;20687;-73
2020/12/06 00:55:48;;;;;;;0.57;0.57;;;3.30;99.90;;;;;;4977429;28;20261;-73
2020/12/06 00:58:14;;;;;;;8.52;2.28;;;3.30;99.90;;;;;;4977404;28;20173;-73
2020/12/06 01:00:40;;;;;;;0.43;0.43;;;3.20;99.90;;;;;;4977373;28;20170;-73
2020/12/06 01:03:06;;;;;;;0.45;0.45;;;3.40;99.90;;;;;;4977202;28;20181;-73
2020/12/06 01:05:31;;;;;;;0.68;0.68;;;3.30;99.90;;;;;;4977256;28;20180;-73
2020/12/06 01:07:57;;;;;;;6.63;2.28;;;3.30;99.90;;;;;;4975996;28;20264;-73
2020/12/06 01:10:25;;;;;;;0.77;0.77;;;3.40;99.90;;;;;;4977090;28;20189;-72
2020/12/06 01:12:51;;;;;;;1.55;1.15;;;3.70;99.90;;;;;;4977350;28;20245;-73
2020/12/06 01:15:16;;;;;;;1.05;1.05;;;3.90;99.90;;;;;;4976961;28;20209;-73
2020/12/06 01:17:42;;;;;;;0.70;0.70;;;4.00;99.90;;;;;;4977036;28;20166;-73
2020/12/06 01:20:08;;;;;;;0.40;0.40;;;3.90;99.90;;;;;;4977051;28;20776;-73
2020/12/06 01:22:36;;;;;;;3.40;0.85;;;3.90;99.90;;;;;;4977217;28;20204;-73
2020/12/06 01:25:03;;;;;;;0.50;0.50;;;4.00;99.90;;;;;;4976924;28;20205;-74
2020/12/06 01:27:29;;;;;;;1.13;1.13;;;4.10;99.90;;;;;;4976914;28;20170;-73
2020/12/06 01:29:55;;;;;;;0.57;0.55;;;4.00;99.90;;;;;;4976925;28;20166;-73
2020/12/06 01:32:20;;;;;;;0.40;0.40;;;4.00;99.90;;;;;;4976794;28;20197;-73
2020/12/06 01:34:46;;;;;;;0.73;0.73;;;4.20;99.90;;;;;;4976821;28;20202;-74
2020/12/06 01:37:12;;;;;;;0.30;0.30;;;4.40;99.90;;;;;;4976240;28;20527;-74
2020/12/06 01:39:37;;;;;;;1.88;1.65;;;4.40;99.90;;;;;;4976746;28;20176;-73
2020/12/06 01:42:03;;;;;;;0.88;0.88;;;4.10;99.90;;;;;;4976562;28;20181;-73
2020/12/06 01:44:29;;;;;;;5.47;2.40;;;4.00;99.90;;;;;;4976756;28;20186;-73
2020/12/06 01:46:55;;;;;;;0.85;0.85;;;3.90;99.90;;;;;;4976614;28;20154;-75
2020/12/06 01:49:26;;;;;;;0.93;0.93;;;4.10;99.90;;;;;;4976779;28;20162;-73
2020/12/06 01:51:59;;;;;;;0.52;0.52;;;3.90;99.90;;;;;;4976363;28;20197;-71
2020/12/06 01:54:25;;;;;;;7.93;2.83;;;3.80;99.90;;;;;;4976404;28;20245;-74
2020/12/06 01:56:51;;;;;;;0.98;0.98;;;3.80;99.90;;;;;;4975701;28;20158;-73
2020/12/06 01:59:17;;;;;;;2.72;1.35;;;3.60;99.90;;;;;;4974732;28;20176;-73
2020/12/06 02:01:54;;;;;;;1.08;1.05;;;3.40;99.90;;;;;;4976203;28;20213;-74
2020/12/06 02:04:20;;;;;;;2.05;1.95;;;3.20;99.90;;;;;;4976151;28;20622;-74
2020/12/06 02:06:45;;;;;;;0.50;0.50;;;3.20;99.90;;;;;;4976146;28;20162;-72
2020/12/06 02:09:11;;;;;;;2.38;1.17;;;3.30;99.90;;;;;;4976141;28;20158;-73
2020/12/06 02:11:38;;;;;;;0.70;0.70;;;3.40;99.90;;;;;;4976029;28;20186;-73
2020/12/06 02:14:03;;;;;;;1.27;1.27;;;3.50;99.90;;;;;;4976075;28;20310;-76
2020/12/06 02:16:29;;;;;;;0.80;0.80;;;3.70;99.90;;;;;;4976020;28;20266;-76
2020/12/06 02:18:57;;;;;;;1.90;1.83;;;3.80;99.90;;;;;;4976031;28;20297;-74
2020/12/06 02:21:22;;;;;;;0.95;0.95;;;4.00;99.90;;;;;;4975624;28;20244;-75
2020/12/06 02:23:48;;;;;;;0.98;0.98;;;3.80;99.90;;;;;;4975837;28;20257;-76
2020/12/06 02:26:13;;;;;;;1.02;1.02;;;3.50;99.90;;;;;;4975915;28;20618;-76
2020/12/06 02:28:40;;;;;;;1.77;0.73;;;3.40;99.90;;;;;;4975695;28;20505;-75
2020/12/06 02:31:05;;;;;;;1.50;1.45;;;3.30;99.90;;;;;;4975681;28;20310;-75
2020/12/06 02:33:31;;;;;;;0.80;0.80;;;3.20;99.90;;;;;;4975848;28;20225;-76
2020/12/06 02:35:57;;;;;;;0.55;0.55;;;3.30;99.90;;;;;;4975748;28;20172;-76
2020/12/06 02:38:22;;;;;;;1.73;1.63;;;3.20;99.90;;;;;;4975634;28;20225;-77
2020/12/06 02:40:48;;;;;;;0.80;0.80;;;3.10;99.90;;;;;;4975585;28;20174;-74
2020/12/06 02:43:14;;;;;;;4.18;2.20;;;3.10;99.90;;;;;;4975527;28;20253;-75
2020/12/06 02:45:39;;;;;;;1.13;1.13;;;3.10;99.90;;;;;;4975580;28;20162;-76
2020/12/06 02:48:05;;;;;;;1.17;1.17;;;3.00;99.90;;;;;;4974974;28;20172;-76
2020/12/06 02:50:30;;;;;;;0.35;0.35;;;3.00;99.90;;;;;;4975189;28;20252;-75
2020/12/06 02:52:57;;;;;;;1.58;1.58;;;3.00;99.90;;;;;;4975319;28;20194;-75
2020/12/06 02:55:25;;;;;;;0.57;0.57;;;3.10;99.90;;;;;;4975260;28;20197;-75
2020/12/06 02:57:51;;;;;;;0.85;0.85;;;3.00;99.90;;;;;;4975278;28;20172;-75
2020/12/06 03:00:16;;;;;;;1.17;1.17;;;3.10;99.90;;;;;;4975213;28;20580;-75
2020/12/06 03:02:42;;;;;;;1.33;1.33;;;3.30;99.90;;;;;;4975159;28;20192;-75
2020/12/06 03:05:08;;;;;;;3.03;1.48;;;3.30;99.90;;;;;;4973845;28;20216;-75
2020/12/06 03:07:33;;;;;;;2.20;0.95;;;3.30;99.90;;;;;;4975123;28;20526;-74
2020/12/06 03:09:59;;;;;;;2.40;1.40;;;3.20;99.90;;;;;;4975062;28;20154;-75
2020/12/06 03:12:24;;;;;;;0.63;0.63;;;3.40;99.90;;;;;;4974927;28;20662;-74
2020/12/06 03:14:50;;;;;;;0.35;0.35;;;3.30;99.90;;;;;;4974957;28;20735;-74
2020/12/06 03:17:15;;;;;;;1.17;1.13;;;3.30;99.90;;;;;;4974875;28;20196;-74
2020/12/06 03:19:41;;;;;;;2.20;1.50;;;3.30;99.90;;;;;;4974756;28;20886;-73
2020/12/06 03:22:06;;;;;;;1.23;1.13;;;3.20;99.90;;;;;;4974856;28;20520;-75
2020/12/06 03:24:32;;;;;;;1.85;1.77;;;3.40;99.90;;;;;;4974866;28;20178;-74
2020/12/06 03:26:57;;;;;;;2.63;2.30;;;3.50;99.90;;;;;;4973556;28;20296;-73
2020/12/06 03:29:23;;;;;;;1.58;1.48;;;3.60;99.90;;;;;;4974741;28;20189;-74
2020/12/06 03:31:48;;;;;;;0.30;0.30;;;3.50;99.90;;;;;;4974814;28;20217;-74
2020/12/06 03:34:14;;;;;;;0.85;0.85;;;3.60;99.90;;;;;;4974647;28;20208;-73
2020/12/06 03:36:39;;;;;;;0.65;0.65;;;3.30;99.90;;;;;;4974650;28;20168;-74
2020/12/06 03:39:05;;;;;;;1.10;1.10;;;3.30;99.90;;;;;;4974711;28;20169;-74
2020/12/06 03:41:30;;;;;;;3.08;1.10;;;3.20;99.90;;;;;;4974438;28;20221;-74
2020/12/06 03:43:56;;;;;;;0.43;0.43;;;3.20;99.90;;;;;;4974598;28;20216;-74
2020/12/06 03:46:22;;;;;;;1.67;1.57;;;3.10;99.90;;;;;;4973330;28;20598;-74
2020/12/06 03:48:47;;;;;;;1.08;1.08;;;3.00;99.90;;;;;;4974538;28;20166;-74
2020/12/06 03:51:13;;;;;;;0.50;0.50;;;2.90;99.90;;;;;;4974458;28;20189;-74
2020/12/06 03:53:38;;;;;;;0.88;0.88;;;2.80;99.90;;;;;;4974351;28;20216;-74
2020/12/06 03:56:04;;;;;;;0.60;0.60;;;2.90;99.90;;;;;;4974360;28;20281;-74
2020/12/06 03:58:29;;;;;;;0.70;0.70;;;3.20;99.90;;;;;;4974388;28;20198;-74
2020/12/06 04:00:55;;;;;;;2.40;2.03;;;3.30;99.90;;;;;;4974153;28;20169;-73
2020/12/06 04:03:20;;;;;;;0.80;0.80;;;3.20;99.90;;;;;;4974358;28;20607;-73
2020/12/06 04:05:46;;;;;;;0.57;0.57;;;3.20;99.90;;;;;;4974381;28;20548;-73
2020/12/06 04:08:11;;;;;;;3.93;0.90;;;3.40;99.90;;;;;;4972962;28;20197;-73
2020/12/06 04:10:37;;;;;;;0.82;0.82;;;3.30;99.90;;;;;;4973009;28;20181;-74
2020/12/06 04:13:02;;;;;;;0.95;0.95;;;3.50;99.90;;;;;;4974193;28;20677;-73
2020/12/06 04:15:28;;;;;;;0.55;0.55;;;3.40;99.90;;;;;;4974030;28;20695;-73
2020/12/06 04:17:54;;;;;;;2.28;1.08;;;3.50;99.90;;;;;;4974127;28;20173;-73
2020/12/06 04:20:19;;;;;;;0.93;0.93;;;3.40;99.90;;;;;;4973917;28;20309;-75
2020/12/06 04:22:45;;;;;;;0.40;0.40;;;3.10;99.90;;;;;;4974110;28;20186;-73
2020/12/06 04:25:10;;;;;;;0.85;0.85;;;2.90;99.90;;;;;;4973987;28;20176;-73
2020/12/06 04:27:36;;;;;;;0.30;0.30;;;3.10;99.90;;;;;;4974030;28;20253;-73
2020/12/06 04:30:03;;;;;;;1.10;1.10;;;3.30;99.90;;;;;;4974046;28;20209;-73
2020/12/06 04:32:28;;;;;;;2.00;1.55;;;3.50;99.90;;;;;;4973961;28;20194;-73
2020/12/06 04:34:54;;;;;;;5.50;1.30;;;3.40;99.90;;;;;;4973813;28;20209;-73
2020/12/06 04:37:19;;;;;;;2.53;2.33;;;3.30;99.90;;;;;;4974038;28;20253;-73
2020/12/06 04:39:45;;;;;;;0.33;0.33;;;3.20;99.90;;;;;;4974042;28;20169;-72
2020/12/06 04:42:10;;;;;;;4.32;2.85;;;3.20;99.90;;;;;;4973926;28;20528;-73
2020/12/06 04:44:36;;;;;;;0.63;0.63;;;3.30;99.90;;;;;;4974032;28;20181;-73
2020/12/06 04:47:04;;;;;;;0.75;0.75;;;3.40;99.90;;;;;;4973889;28;20166;-73
2020/12/06 04:49:42;;;;;;;0.95;0.95;;;3.30;99.90;;;;;;4973950;28;20170;-73
2020/12/06 04:52:15;;;;;;;0.88;0.88;;;3.20;99.90;;;;;;4973677;28;20202;-75
2020/12/06 04:54:42;;;;;;;1.52;1.42;;;3.30;99.90;;;;;;4972409;28;20575;-73
2020/12/06 04:57:10;;;;;;;0.80;0.80;;;3.40;99.90;;;;;;4973953;28;20209;-72
2020/12/06 04:59:41;;;;;;;1.30;0.77;;;3.20;99.90;;;;;;4973751;28;20166;-72
2020/12/06 05:02:10;;;;;;;1.17;1.10;;;3.30;99.90;;;;;;4973631;28;20197;-73
2020/12/06 05:04:42;;;;;;;0.82;0.82;;;3.10;99.90;;;;;;4973751;28;20171;-72
2020/12/06 05:07:08;;;;;;;2.47;0.95;;;2.80;99.90;;;;;;4972293;28;20666;-73
2020/12/06 05:09:35;;;;;;;0.60;0.47;;;2.80;99.90;;;;;;4974487;28;20158;-72
2020/12/06 05:12:03;;;;;;;1.48;1.45;;;3.00;99.90;;;;;;4974558;28;20186;-73
2020/12/06 05:14:29;;;;;;;1.42;1.33;;;2.90;99.90;;;;;;4977147;28;20216;-74
2020/12/06 05:16:59;;;;;;;0.80;0.80;;;2.70;99.90;;;;;;4977181;28;20237;-73
2020/12/06 05:19:28;;;;;;;0.82;0.82;;;2.40;99.90;;;;;;4976977;28;20170;-74
2020/12/06 05:21:54;;;;;;;0.33;0.33;;;2.30;99.90;;;;;;4976936;28;20206;-73
2020/12/06 05:24:20;;;;;;;0.67;0.67;;;2.30;99.90;;;;;;4976923;28;20608;-74
2020/12/06 05:26:46;;;;;;;1.27;1.17;;;2.30;99.90;;;;;;4976956;28;20193;-73
2020/12/06 05:29:13;;;;;;;0.40;0.40;;;2.30;99.90;;;;;;4976879;28;20166;-73
2020/12/06 05:31:39;;;;;;;0.50;0.50;;;2.30;99.90;;;;;;4976774;28;20189;-73
2020/12/06 05:34:05;;;;;;;1.13;1.13;;;2.30;99.90;;;;;;4976818;28;20241;-73
2020/12/06 05:36:31;;;;;;;0.50;0.50;;;2.30;99.90;;;;;;4976772;28;20205;-72
2020/12/06 05:38:56;;;;;;;1.03;1.03;;;2.40;99.90;;;;;;4975499;28;20209;-73
2020/12/06 05:41:22;;;;;;;0.80;0.80;;;2.40;99.90;;;;;;4976567;28;20190;-73
2020/12/06 05:43:48;;;;;;;1.03;1.03;;;2.50;99.90;;;;;;4976674;28;20185;-73
2020/12/06 05:46:15;;;;;;;0.67;0.67;;;2.50;99.90;;;;;;4976854;28;20502;-73
2020/12/06 05:48:42;;;;;;;1.33;1.23;;;2.70;99.90;;;;;;4976681;28;20182;-73
2020/12/06 05:51:08;;;;;;;1.43;1.43;;;2.90;99.90;;;;;;4976492;28;20188;-72
2020/12/06 05:53:35;;;;;;;1.13;1.13;;;2.90;99.90;;;;;;4976366;28;20193;-73
2020/12/06 05:56:12;;;;;;;1.00;1.00;;;3.00;99.90;;;;;;4976525;28;20200;-73
2020/12/06 05:58:40;;;;;;;1.70;1.13;;;3.20;99.90;;;;;;4976525;28;20173;-73
2020/12/06 06:01:07;;;;;;;0.60;0.60;;;3.20;99.90;;;;;;4976279;28;20541;-73
2020/12/06 06:03:37;;;;;;;6.03;2.25;;;3.20;99.90;;;;;;4976582;28;20166;-73
2020/12/06 06:06:08;;;;;;;0.60;0.60;;;3.30;99.90;;;;;;4976296;28;20240;-73
2020/12/06 06:08:36;;;;;;;1.38;1.38;;;3.30;99.90;;;;;;4976176;28;20166;-72
2020/12/06 06:11:23;;;;;;;0.65;0.65;;;3.40;99.90;;;;;;4976381;28;20653;-74
2020/12/06 06:13:55;;;;;;;0.43;0.43;;;3.50;99.90;;;;;;4976112;28;20517;-74
2020/12/06 06:16:23;;;;;;;0.63;0.63;;;3.50;99.90;;;;;;4976079;28;20618;-74
2020/12/06 06:18:50;;;;;;;1.00;0.98;;;3.30;99.90;;;;;;4976087;28;20535;-75
2020/12/06 06:21:22;;;;;;;0.60;0.60;;;3.20;99.90;;;;;;4975729;28;20598;-74
2020/12/06 06:23:49;;;;;;;0.90;0.88;;;3.20;99.90;;;;;;4975861;28;20173;-74
2020/12/06 06:26:17;;;;;;;2.45;2.25;;;3.20;99.90;;;;;;4975819;28;20169;-75
2020/12/06 06:28:45;;;;;;;1.02;0.98;;;3.30;99.90;;;;;;4975797;28;20190;-74
2020/12/06 06:31:13;;;;;;;0.40;0.40;;;3.30;99.90;;;;;;4975687;28;20205;-73
2020/12/06 06:33:39;;;;;;;1.80;1.70;;;3.20;99.90;;;;;;4975417;28;20653;-74
2020/12/06 06:36:10;;;;;;;0.97;0.67;;;3.10;99.90;;;;;;4975887;28;20176;-73
2020/12/06 06:38:54;;;;;;;1.48;1.40;;;3.20;99.90;;;;;;4975528;28;20193;-71
2020/12/06 06:41:24;;;;;;;1.10;1.10;;;3.10;99.90;;;;;;4974282;28;20801;-72
2020/12/06 06:43:50;;;;;;;1.37;1.27;;;3.10;99.90;;;;;;4975770;28;20172;-72
2020/12/06 06:46:17;;;;;;;0.70;0.70;;;3.10;99.90;;;;;;4975565;28;20161;-72
2020/12/06 06:48:48;;;;;;;0.77;0.77;;;3.10;99.90;;;;;;4975445;28;20220;-73
2020/12/06 06:51:22;;;;;;;1.30;1.30;;;3.10;99.90;;;;;;4975388;28;20288;-73
2020/12/06 06:53:49;;;;;;;2.15;2.03;;;3.20;99.90;;;;;;4975332;28;20248;-73
2020/12/06 06:56:19;;;;;;;3.40;1.20;;;3.40;99.90;;;;;;4975311;28;20181;-73
2020/12/06 06:58:47;;;;;;;0.88;0.88;;;3.40;99.90;;;;;;4975156;28;20171;-73
2020/12/06 07:01:23;;;;;;;3.58;3.25;;;3.40;99.90;;;;;;4974958;28;20523;-73
2020/12/06 07:03:55;;;;;;;0.75;0.75;;;3.40;99.90;;;;;;4975276;28;20192;-73
2020/12/06 07:06:42;;;;;;;0.30;0.30;;;3.70;99.90;;;;;;4975109;28;20205;-73
2020/12/06 07:09:07;;;;;;;0.60;0.60;;;3.90;99.90;;;;;;4975020;28;20596;-73
2020/12/06 07:11:33;;;;;;;1.50;1.40;;;4.20;99.90;;;;;;4975015;28;20276;-73
2020/12/06 07:14:01;;;;;;;0.30;0.30;;;4.20;99.90;;;;;;4974769;28;20193;-73
2020/12/06 07:16:26;;;;;;;1.90;1.80;;;4.10;99.90;;;;;;4974949;28;20170;-75
2020/12/06 07:18:52;;;;;;;0.75;0.73;;;4.00;99.90;;;;;;4974918;28;20170;-74
2020/12/06 07:21:18;;;;;;;0.65;0.65;;;3.80;99.90;;;;;;4974432;28;20693;-75
2020/12/06 07:23:43;;;;;;;1.20;1.15;;;3.90;99.90;;;;;;4974773;28;20170;-75
2020/12/06 07:26:10;;;;;;;0.63;0.63;;;3.90;99.90;;;;;;4974840;28;20170;-74
2020/12/06 07:28:35;;;;;;;0.57;0.57;;;4.00;99.90;;;;;;4974722;28;20277;-75
2020/12/06 07:31:01;;;;;;;3.40;1.08;;;3.90;99.90;;;;;;4974543;28;20645;-73
2020/12/06 07:33:26;;;;;;;0.80;0.80;;;3.90;99.90;;;;;;4974629;28;20155;-73
2020/12/06 07:35:52;;;;;;;0.60;0.60;;;4.10;99.90;;;;;;4974031;28;20564;-73
2020/12/06 07:38:17;;;;;;;1.08;1.05;;;4.30;99.90;;;;;;4974498;28;20170;-74
2020/12/06 07:40:43;;;;;;;1.30;0.60;;;4.40;99.90;;;;;;4974418;28;20177;-74
2020/12/06 07:43:13;;;;;;;0.82;0.82;;;4.30;99.90;;;;;;4974415;28;20205;-74
2020/12/06 07:45:39;;;;;;;0.50;0.50;;;4.10;99.90;;;;;;4974409;28;20178;-73
2020/12/06 07:48:05;;;;;;;0.60;0.60;;;4.00;99.90;;;;;;4974599;28;20181;-76
2020/12/06 07:50:31;;;;;;;0.73;0.73;;;4.00;99.90;;;;;;4974580;28;20253;-76
2020/12/06 07:53:02;;;;;;;0.70;0.63;;;4.30;99.90;;;;;;4963458;28;20298;-73
2020/12/06 07:55:28;;;;;;;1.65;1.55;;;4.10;99.90;;;;;;4982122;28;20233;-73
2020/12/06 07:58:01;;;;;;;1.08;1.00;;;3.70;99.90;;;;;;4955023;28;20630;-71
2020/12/06 08:00:37;;;;;;;0.52;0.40;;;3.90;99.90;;;;;;4954992;28;20166;-72
2020/12/06 08:03:05;;;;;;;2.05;1.95;;;4.10;99.90;;;;;;4954750;28;20204;-75
2020/12/06 08:05:34;;;;;;;1.13;1.13;;;4.20;99.90;;;;;;4954906;28;20202;-74
2020/12/06 08:08:19;;;;;;;0.95;0.90;;;4.50;99.90;;;;;;4955208;28;20173;-74
2020/12/06 08:10:51;;;;;;;0.90;0.68;;;4.30;99.90;;;;;;4955017;28;20162;-74
2020/12/06 08:13:17;;;;;;;1.85;0.60;;;4.10;99.90;;;;;;4955609;28;20521;-75
2020/12/06 08:15:43;;;;;;;1.63;1.52;;;4.00;99.90;;;;;;4955151;28;20212;-74
2020/12/06 08:18:17;;;;;;;5.68;3.53;;;4.00;99.90;;;;;;4954876;28;20217;-73
2020/12/06 08:21:01;;;;;;;8.88;1.88;;;3.70;99.90;;;;;;4954566;28;20250;-73
2020/12/06 08:23:36;;;;;;;4.80;3.13;;;3.70;99.90;;;;;;4954943;28;20179;-72
2020/12/06 08:26:02;;;;;;;1.38;1.33;;;3.80;99.90;;;;;;4955730;28;20151;-74
2020/12/06 08:28:28;;;;;;;0.70;0.70;;;3.90;99.90;;;;;;4955871;28;20689;-71
2020/12/06 08:30:54;;;;;;;2.10;2.00;;;4.00;99.90;;;;;;4954398;28;20234;-73
2020/12/06 08:33:27;;;;;;;1.10;1.08;;;4.10;99.90;;;;;;4953961;28;20167;-75
2020/12/06 08:35:58;;;;;;;2.10;1.33;;;4.00;99.90;;;;;;4954478;28;20257;-75
2020/12/06 08:38:33;;;;;;;0.80;0.80;;;3.90;99.90;;;;;;4954675;28;20171;-75
2020/12/06 08:41:09;;;;;;;1.40;1.30;;;3.80;99.90;;;;;;4954377;28;20170;-75
2020/12/06 08:43:49;;;;;;;1.15;1.13;;;3.80;99.90;;;;;;4954698;28;20158;-74
2020/12/06 08:46:17;;;;;;;2.10;1.80;;;3.80;99.90;;;;;;4953218;28;20181;-75
2020/12/06 08:48:43;;;;;;;2.42;2.25;;;3.80;99.90;;;;;;4954313;28;20179;-73
2020/12/06 08:51:32;;;;;;;2.28;2.15;;;4.00;99.90;;;;;;4953263;28;20288;-72
2020/12/06 08:54:00;;;;;;;3.75;2.45;;;4.20;99.90;;;;;;4957236;29;20210;-73
2020/12/06 08:56:37;;;;;;;12.05;1.63;;;4.20;99.90;;;;;;4957323;29;20233;-74
2020/12/06 08:59:08;;;;;;;0.60;0.60;;;4.10;99.90;;;;;;4956947;29;20198;-73
2020/12/06 09:01:45;;;;;;;1.25;1.15;;;3.90;99.90;;;;;;4957029;28;20229;-73
2020/12/06 09:04:11;;;;;;;1.10;1.10;;;3.80;99.90;;;;;;4957019;28;20181;-74
2020/12/06 09:06:38;;;;;;;2.63;2.45;;;3.80;99.90;;;;;;4956914;29;20167;-74
2020/12/06 09:09:03;;;;;;;1.35;1.35;;;3.90;99.90;;;;;;4955967;29;20237;-75
2020/12/06 09:11:29;;;;;;;1.15;1.15;;;3.90;99.90;;;;;;4956981;28;20186;-75
2020/12/06 09:13:55;;;;;;;1.17;1.17;;;4.10;99.90;;;;;;4956340;29;20580;-81
2020/12/06 09:16:21;;;;;;;1.95;1.50;;;4.30;99.90;;;;;;4957061;28;20173;-81
2020/12/06 09:18:47;;;;;;;2.92;1.58;;;4.50;99.90;;;;;;4956454;29;20646;-72
2020/12/06 09:21:12;;;;;;;1.13;1.13;;;4.50;99.90;;;;;;4956318;28;20280;-73
2020/12/06 09:23:38;;;;;;;0.60;0.60;;;4.70;99.90;;;;;;4956598;28;20167;-73
2020/12/06 09:26:05;;;;;;;7.30;3.50;;;4.70;99.90;;;;;;4956885;28;20795;-71
2020/12/06 09:28:31;;;;;;;1.95;1.33;;;4.80;99.90;;;;;;4956665;28;20155;-72
2020/12/06 09:30:56;;;;;;;1.92;1.83;;;4.90;99.90;;;;;;4956598;28;20249;-76
2020/12/06 09:33:22;;;;;;;2.08;1.98;;;4.80;99.90;;;;;;4956430;28;20218;-72
2020/12/06 09:35:48;;;;;;;3.22;2.80;;;5.00;99.90;;;;;;4956091;28;20203;-72
2020/12/06 09:38:14;;;;;;;2.25;2.15;;;5.10;99.90;;;;;;4956119;28;20159;-75
2020/12/06 09:40:40;;;;;;;1.23;1.23;;;5.10;99.90;;;;;;4955949;28;20177;-74
2020/12/06 09:43:05;;;;;;;2.05;1.95;;;4.90;99.90;;;;;;4956302;28;20212;-72
2020/12/06 09:45:31;;;;;;;1.90;1.80;;;5.20;99.90;;;;;;4956152;28;20178;-72
2020/12/06 09:47:57;;;;;;;2.15;2.05;;;5.30;99.90;;;;;;4955915;28;20205;-72
2020/12/06 09:50:22;;;;;;;0.90;0.82;;;5.40;99.90;;;;;;4955739;28;20193;-72
2020/12/06 09:52:48;;;;;;;1.33;1.23;;;5.60;99.90;;;;;;4954648;29;20195;-72
2020/12/06 09:55:13;;;;;;;4.90;2.10;;;5.90;99.90;;;;;;4956130;28;20729;-72
2020/12/06 09:57:39;;;;;;;2.03;1.92;;;5.90;99.90;;;;;;4954237;28;20626;-71
2020/12/06 10:00:05;;;;;;;4.13;2.13;;;6.00;99.90;;;;;;4955874;28;20677;-72
2020/12/06 10:02:31;;;;;;;2.15;1.80;;;5.80;99.90;;;;;;4954387;29;20240;-73
2020/12/06 10:04:57;;;;;;;5.45;2.95;;;5.40;99.90;;;;;;4955662;28;20175;-74
2020/12/06 10:07:24;;;;;;;2.35;2.15;;;5.40;99.90;;;;;;4955567;28;20163;-72
2020/12/06 10:09:50;;;;;;;1.52;1.42;;;5.20;99.90;;;;;;4954611;29;20179;-74
2020/12/06 10:12:15;;;;;;;5.05;2.60;;;5.20;99.90;;;;;;4955585;28;20221;-73
2020/12/06 10:14:41;;;;;;;1.50;1.40;;;5.00;99.90;;;;;;4955513;28;20213;-73
2020/12/06 10:17:07;;;;;;;2.78;1.40;;;4.90;99.90;;;;;;4955444;28;20162;-72
2020/12/06 10:19:32;;;;;;;11.77;4.65;;;5.10;99.90;;;;;;4954285;28;20174;-72
2020/12/06 10:21:58;;;;;;;2.88;2.70;;;5.20;99.90;;;;;;4954781;28;20278;-72
2020/12/06 10:24:24;;;;;;;1.48;1.30;;;5.20;99.90;;;;;;4955478;28;20194;-72
2020/12/06 10:26:53;;;;;;;3.42;3.22;;;5.40;99.90;;;;;;4954553;28;20170;-72
2020/12/06 10:29:22;;;;;;;4.20;2.72;;;5.30;99.90;;;;;;4954011;28;20214;-71
2020/12/06 10:31:52;;;;;;;11.32;1.60;;;5.50;99.90;;;;;;4955387;28;20552;-72
2020/12/06 10:34:18;;;;;;;3.05;2.83;;;5.70;99.90;;;;;;4954387;28;20195;-73
2020/12/06 10:36:55;;;;;;;1.25;1.00;;;5.80;99.90;;;;;;4955310;28;20175;-71
2020/12/06 10:39:22;;;;;;;2.28;1.95;;;5.50;99.90;;;;;;4954788;28;20519;-72
2020/12/06 10:41:49;;;;;;;4.53;4.22;;;5.30;99.90;;;;;;4954881;28;20191;-72
2020/12/06 10:44:14;;;;;;;4.03;2.47;;;4.90;99.90;;;;;;4954674;28;20167;-74
2020/12/06 10:46:40;;;;;;;2.70;2.50;;;4.70;99.90;;;;;;4955132;28;20251;-72
2020/12/06 10:49:05;;;;;;;2.75;2.35;;;4.80;99.90;;;;;;4954436;28;20661;-79
2020/12/06 10:51:34;;;;;;;4.97;2.13;;;5.10;99.90;;;;;;4955118;28;20206;-73
2020/12/06 10:54:02;;;;;;;2.33;2.17;;;5.30;99.90;;;;;;4954475;28;20182;-72
2020/12/06 10:56:29;;;;;;;0.77;0.77;;;5.40;99.90;;;;;;4955039;28;20213;-72
2020/12/06 10:58:55;;;;;;;1.45;1.45;;;5.30;99.90;;;;;;4954921;28;20618;-74
2020/12/06 11:01:25;;;;;;;1.45;1.45;;;5.40;99.90;;;;;;4954892;28;20189;-73
2020/12/06 11:03:54;;;;;;;2.58;2.15;;;5.20;99.90;;;;;;4954708;28;20155;-72
2020/12/06 11:06:23;;;;;;;2.50;2.38;;;5.10;99.90;;;;;;4954807;28;20176;-73
2020/12/06 11:08:49;;;;;;;6.55;2.42;;;5.00;99.90;;;;;;4954491;28;20689;-71
2020/12/06 11:11:19;;;;;;;1.92;1.48;;;4.90;99.90;;;;;;4953853;28;20190;-73
2020/12/06 11:13:45;;;;;;;1.83;1.73;;;4.90;99.90;;;;;;4954393;28;20164;-73
2020/12/06 11:16:16;;;;;;;2.88;2.67;;;5.00;99.90;;;;;;4954464;28;20694;-73
2020/12/06 11:18:41;;;;;;;2.55;2.45;;;5.30;99.90;;;;;;4953694;28;20171;-72
2020/12/06 11:21:07;;;;;;;5.18;1.65;;;5.10;99.90;;;;;;4953948;28;20238;-72
2020/12/06 11:23:32;;;;;;;2.67;2.58;;;5.40;99.90;;;;;;4954343;28;20699;-72
2020/12/06 11:25:58;;;;;;;2.25;2.15;;;5.40;99.90;;;;;;4954454;28;20634;-72
2020/12/06 11:28:26;;;;;;;5.05;3.15;;;5.20;99.90;;;;;;4953951;28;20174;-72
2020/12/06 11:30:52;;;;;;;3.60;2.45;;;5.10;99.90;;;;;;4954271;28;20178;-72
2020/12/06 11:33:17;;;;;;;2.95;2.78;;;4.90;99.90;;;;;;4954286;28;20167;-72
2020/12/06 11:35:43;;;;;;;3.00;2.78;;;4.80;99.90;;;;;;4953831;28;20203;-72
2020/12/06 11:38:09;;;;;;;5.07;2.33;;;4.80;99.90;;;;;;4954146;28;20630;-72
2020/12/06 11:40:35;;;;;;;5.10;1.65;;;4.70;99.90;;;;;;4953953;28;20526;-73
2020/12/06 11:43:00;;;;;;;1.70;1.60;;;4.90;99.90;;;;;;4954123;28;20665;-73
2020/12/06 11:45:32;;;;;;;3.70;2.55;;;5.10;99.90;;;;;;4953692;28;20638;-72
2020/12/06 11:47:57;;;;;;;2.28;1.65;;;5.40;99.90;;;;;;4953733;28;20528;-72
2020/12/06 11:50:23;;;;;;;2.50;2.33;;;5.40;99.90;;;;;;4953526;28;20178;-72
2020/12/06 11:52:48;;;;;;;1.95;1.85;;;5.50;99.90;;;;;;4954078;28;20203;-72
2020/12/06 11:55:14;;;;;;;4.60;4.10;;;5.70;99.90;;;;;;4953256;28;20257;-71
2020/12/06 11:57:40;;;;;;;2.75;2.55;;;5.60;99.90;;;;;;4954849;28;20181;-73
2020/12/06 12:00:07;;;;;;;2.90;2.45;;;5.80;99.90;;;;;;4955042;28;20155;-72
2020/12/06 12:02:33;;;;;;;2.20;1.70;;;6.00;99.90;;;;;;4954809;28;20189;-72
2020/12/06 12:04:59;;;;;;;2.13;1.98;;;6.00;99.90;;;;;;4954794;28;20183;-73
2020/12/06 12:07:25;;;;;;;6.82;2.15;;;6.10;99.90;;;;;;4954882;28;20176;-74
2020/12/06 12:09:50;;;;;;;3.80;2.67;;;6.20;99.90;;;;;;4954889;28;20225;-72
2020/12/06 12:12:16;;;;;;;3.67;3.05;;;6.40;99.90;;;;;;4954652;28;20225;-74
2020/12/06 12:14:41;;;;;;;1.13;1.13;;;6.50;99.90;;;;;;4954824;28;20222;-74
2020/12/06 12:17:07;;;;;;;3.72;2.83;;;6.70;99.90;;;;;;4953630;29;20194;-71
2020/12/06 12:19:32;;;;;;;4.82;4.00;;;6.70;99.90;;;;;;4954616;28;20162;-73
2020/12/06 12:21:58;;;;;;;5.57;3.65;;;6.50;99.90;;;;;;4957285;28;20207;-73
2020/12/06 12:24:24;;;;;;;3.25;2.00;;;6.40;99.90;;;;;;4958862;28;20257;-73
2020/12/06 12:26:59;;;;;;;5.38;3.20;;;6.40;99.90;;;;;;4958646;28;20642;-73
2020/12/06 12:29:25;;;;;;;2.13;2.03;;;6.40;99.90;;;;;;4958651;28;20217;-73
2020/12/06 12:31:53;;;;;;;1.58;1.40;;;6.30;99.90;;;;;;4958358;28;20193;-73
2020/12/06 12:34:18;;;;;;;2.95;2.00;;;5.90;99.90;;;;;;4958498;28;20213;-74
2020/12/06 12:36:45;;;;;;;2.72;2.53;;;5.70;99.90;;;;;;4958125;28;20170;-73
2020/12/06 12:39:12;;;;;;;3.90;1.63;;;5.80;99.90;;;;;;4958542;28;20228;-73
2020/12/06 12:41:38;;;;;;;5.90;4.40;;;6.00;99.90;;;;;;4958307;28;20194;-73
2020/12/06 12:44:07;;;;;;;1.67;1.65;;;6.30;99.90;;;;;;4958254;28;20171;-74
2020/12/06 12:46:35;;;;;;;1.23;1.23;;;6.30;99.90;;;;;;4958229;28;20173;-72
2020/12/06 12:49:02;;;;;;;2.25;2.15;;;6.50;99.90;;;;;;4957890;28;20193;-73
2020/12/06 12:51:28;;;;;;;2.15;2.05;;;6.60;99.90;;;;;;4956671;29;20194;-74
2020/12/06 12:53:54;;;;;;;4.10;3.45;;;6.60;99.90;;;;;;4957896;28;20193;-72
2020/12/06 12:56:20;;;;;;;1.77;1.67;;;6.30;99.90;;;;;;4957818;28;20648;-72
2020/12/06 12:58:45;;;;;;;5.40;2.30;;;6.10;99.90;;;;;;4957842;28;20167;-73